createdAt,value
2022-09-03T00:01:42.658Z,1.85
2022-09-03T00:04:20.937Z,1.95
2022-09-03T00:07:03.272Z,1.80
2022-09-03T00:09:37.639Z,1.92
2022-09-03T00:12:15.450Z,1.97
2022-09-03T00:14:59.846Z,1.70
2022-09-03T00:17:38.569Z,1.85
2022-09-03T00:20:13.604Z,1.90
2022-09-03T00:22:46.266Z,1.95
2022-09-03T00:25:20.574Z,2.08
2022-09-03T00:27:58.394Z,1.60
2022-09-03T00:30:27.930Z,1.60
2022-09-03T00:33:05.626Z,1.83
2022-09-03T00:35:38.578Z,1.60
2022-09-03T00:38:07.747Z,2.08
2022-09-03T00:41:02.633Z,1.92
2022-09-03T00:43:48.107Z,1.75
2022-09-03T00:46:24.996Z,1.55
2022-09-03T00:49:21.021Z,1.92
2022-09-03T00:52:00.835Z,1.80
2022-09-03T00:54:41.863Z,1.77
2022-09-03T00:57:35.977Z,1.77
2022-09-03T01:00:08.912Z,1.52
2022-09-03T01:02:57.106Z,1.80
2022-09-03T01:05:44.405Z,1.88
2022-09-03T01:08:49.136Z,1.60
2022-09-03T01:11:26.799Z,1.70
2022-09-03T01:14:06.481Z,1.73
2022-09-03T01:16:41.597Z,1.92
2022-09-03T01:19:35.608Z,2.08
2022-09-03T01:22:28.011Z,1.63
2022-09-03T01:25:17.637Z,1.70
2022-09-03T01:28:20.693Z,1.60
2022-09-03T01:30:57.471Z,1.90
2022-09-03T01:33:34.999Z,1.83
2022-09-03T01:36:13.905Z,2.03
2022-09-03T01:38:51.435Z,1.80
2022-09-03T01:41:53.745Z,1.90
2022-09-03T01:44:39.317Z,2.28
2022-09-03T01:47:20.262Z,1.70
2022-09-03T01:49:59.468Z,1.77
2022-09-03T01:52:42.086Z,1.70
2022-09-03T01:55:29.746Z,1.60
2022-09-03T01:58:03.646Z,1.75
2022-09-03T02:00:37.850Z,1.80
2022-09-03T02:03:11.026Z,1.70
2022-09-03T02:05:39.447Z,1.50
2022-09-03T02:08:11.616Z,1.60
2022-09-03T02:10:44.658Z,1.52
2022-09-03T02:13:18.251Z,1.60
2022-09-03T02:15:52.235Z,1.85
2022-09-03T02:18:25.460Z,2.00
2022-09-03T02:20:55.773Z,1.95
2022-09-03T02:23:28.301Z,2.72
2022-09-03T02:25:59.669Z,2.35
2022-09-03T02:28:29.275Z,2.58
2022-09-03T02:30:59.332Z,2.70
2022-09-03T02:33:28.676Z,2.50
2022-09-03T02:35:57.190Z,2.83
2022-09-03T02:38:28.324Z,2.60
2022-09-03T02:40:56.758Z,2.95
2022-09-03T02:43:31.872Z,2.80
2022-09-03T02:46:06.146Z,3.13
2022-09-03T02:48:34.945Z,2.85
2022-09-03T02:51:14.267Z,2.95
2022-09-03T02:53:45.163Z,3.58
2022-09-03T02:56:14.143Z,3.22
2022-09-03T02:58:42.450Z,3.05
2022-09-03T03:01:14.591Z,2.95
2022-09-03T03:03:52.109Z,3.28
2022-09-03T03:06:21.077Z,2.63
2022-09-03T03:08:50.885Z,2.55
2022-09-03T03:11:19.931Z,3.17
2022-09-03T03:13:48.301Z,2.40
2022-09-03T03:16:18.754Z,2.03
2022-09-03T03:18:47.283Z,2.25
2022-09-03T03:21:18.973Z,2.15
2022-09-03T03:23:47.327Z,2.10
2022-09-03T03:26:19.484Z,1.90
2022-09-03T03:28:49.003Z,2.25
2022-09-03T03:31:21.313Z,1.80
2022-09-03T03:33:54.138Z,2.10
2022-09-03T03:36:24.937Z,1.90
2022-09-03T03:38:56.507Z,1.52
2022-09-03T03:41:27.117Z,2.22
2022-09-03T03:43:57.212Z,1.80
2022-09-03T03:46:30.759Z,1.70
2022-09-03T03:48:59.690Z,1.60
2022-09-03T03:51:28.048Z,1.50
2022-09-03T03:54:00.186Z,2.00
2022-09-03T03:56:31.529Z,1.75
2022-09-03T03:59:01.400Z,1.60
2022-09-03T04:01:31.486Z,1.38
2022-09-03T04:04:01.133Z,1.90
2022-09-03T04:06:30.268Z,1.73
2022-09-03T04:08:58.753Z,1.52
2022-09-03T04:11:27.576Z,1.70
2022-09-03T04:13:55.892Z,1.48
2022-09-03T04:16:26.564Z,1.67
2022-09-03T04:18:58.042Z,1.60
2022-09-03T04:21:29.251Z,1.38
2022-09-03T04:23:59.001Z,1.60
2022-09-03T04:26:31.415Z,1.58
2022-09-03T04:29:01.897Z,1.63
2022-09-03T04:31:30.462Z,1.70
2022-09-03T04:34:01.907Z,1.60
2022-09-03T04:36:31.985Z,1.55
2022-09-03T04:39:02.810Z,1.70
2022-09-03T04:41:32.631Z,1.70
2022-09-03T04:44:01.775Z,1.42
2022-09-03T04:46:32.959Z,1.33
2022-09-03T04:49:03.351Z,1.70
2022-09-03T04:51:32.541Z,1.50
2022-09-03T04:54:03.263Z,1.60
2022-09-03T04:56:33.603Z,1.63
2022-09-03T04:59:04.007Z,1.65
2022-09-03T05:01:35.338Z,1.70
2022-09-03T05:04:06.709Z,1.60
2022-09-03T05:06:37.285Z,1.60
2022-09-03T05:09:06.700Z,1.40
2022-09-03T05:11:35.718Z,1.70
2022-09-03T05:14:05.784Z,1.67
2022-09-03T05:16:34.320Z,1.77
2022-09-03T05:19:06.051Z,1.70
2022-09-03T05:21:36.033Z,1.52
2022-09-03T05:24:05.750Z,1.35
2022-09-03T05:26:38.390Z,1.70
2022-09-03T05:29:09.901Z,1.83
2022-09-03T05:31:39.960Z,1.50
2022-09-03T05:34:18.525Z,1.60
2022-09-03T05:36:49.864Z,1.40
2022-09-03T05:39:20.946Z,1.70
2022-09-03T05:41:52.352Z,1.25
2022-09-03T05:44:23.550Z,1.60
2022-09-03T05:46:53.953Z,1.67
2022-09-03T05:49:27.330Z,2.10
2022-09-03T05:52:07.482Z,1.58
2022-09-03T05:54:48.008Z,1.33
2022-09-03T05:57:22.671Z,1.40
2022-09-03T05:59:52.842Z,1.47
2022-09-03T06:02:27.658Z,1.42
2022-09-03T06:05:00.318Z,1.40
2022-09-03T06:07:29.627Z,1.40
2022-09-03T06:09:58.571Z,1.50
2022-09-03T06:12:29.376Z,1.30
2022-09-03T06:14:58.818Z,1.52
2022-09-03T06:17:47.294Z,1.60
2022-09-03T06:20:36.819Z,1.90
2022-09-03T06:23:11.628Z,1.30
2022-09-03T06:25:44.029Z,1.38
2022-09-03T06:28:16.393Z,1.42
2022-09-03T06:30:45.109Z,1.30
2022-09-03T06:33:35.376Z,1.58
2022-09-03T06:36:09.132Z,1.60
2022-09-03T06:38:41.109Z,1.58
2022-09-03T06:41:28.026Z,1.38
2022-09-03T06:44:03.608Z,1.27
2022-09-03T06:46:34.993Z,1.38
2022-09-03T06:49:20.377Z,1.38
2022-09-03T06:51:50.556Z,1.23
2022-09-03T06:54:23.172Z,1.38
2022-09-03T06:57:14.139Z,1.40
2022-09-03T06:59:43.911Z,1.20
2022-09-03T07:02:12.878Z,1.27
2022-09-03T07:04:42.051Z,1.30
2022-09-03T07:07:21.627Z,1.45
2022-09-03T07:09:50.274Z,1.48
2022-09-03T07:12:19.404Z,1.30
2022-09-03T07:14:48.769Z,1.50
2022-09-03T07:17:22.727Z,1.48
2022-09-03T07:19:51.226Z,1.30
2022-09-03T07:22:21.376Z,1.50
2022-09-03T07:27:30.831Z,1.40
2022-09-03T07:29:59.548Z,1.50
2022-09-03T07:32:28.095Z,1.85
2022-09-03T07:34:58.592Z,1.17
2022-09-03T07:37:31.797Z,1.30
2022-09-03T07:40:02.060Z,1.20
2022-09-03T07:42:31.142Z,1.40
2022-09-03T07:44:59.827Z,1.55
2022-09-03T07:47:29.561Z,1.25
2022-09-03T07:49:58.906Z,1.23
2022-09-03T07:52:29.349Z,1.40
2022-09-03T07:54:59.601Z,1.40
2022-09-03T07:57:28.187Z,1.30
2022-09-03T07:59:57.136Z,1.20
2022-09-03T08:02:34.765Z,1.85
2022-09-03T08:05:03.446Z,1.20
2022-09-03T08:07:33.536Z,1.38
2022-09-03T08:10:02.362Z,1.40
2022-09-03T08:12:32.802Z,1.20
2022-09-03T08:15:01.428Z,1.15
2022-09-03T08:17:30.239Z,1.20
2022-09-03T08:19:59.278Z,1.85
2022-09-03T08:22:28.252Z,1.35
2022-09-03T08:24:58.592Z,1.45
2022-09-03T08:27:27.804Z,1.27
2022-09-03T08:29:56.367Z,1.48
2022-09-03T08:32:27.981Z,1.70
2022-09-03T08:35:10.078Z,1.17
2022-09-03T08:37:41.429Z,1.35
2022-09-03T08:40:13.226Z,1.65
2022-09-03T08:43:08.973Z,1.60
2022-09-03T08:45:39.493Z,1.27
2022-09-03T08:48:13.867Z,1.10
2022-09-03T08:50:51.621Z,1.25
2022-09-03T08:53:28.345Z,1.73
2022-09-03T08:56:06.083Z,1.35
2022-09-03T08:58:44.095Z,1.42
2022-09-03T09:01:24.638Z,1.30
2022-09-03T09:04:06.914Z,1.50
2022-09-03T09:06:49.879Z,1.50
2022-09-03T09:09:32.403Z,1.17
2022-09-03T09:12:18.280Z,1.65
2022-09-03T09:15:00.337Z,1.52
2022-09-03T09:18:00.400Z,1.40
2022-09-03T09:20:42.840Z,1.42
2022-09-03T09:23:16.891Z,1.40
2022-09-03T09:25:54.343Z,1.60
2022-09-03T09:28:31.318Z,1.38
2022-09-03T09:31:03.191Z,1.50
2022-09-03T09:33:35.403Z,1.38
2022-09-03T09:36:08.435Z,1.50
2022-09-03T09:38:40.047Z,1.52
2022-09-03T09:41:12.866Z,1.42
2022-09-03T09:43:43.377Z,1.42
2022-09-03T09:46:15.965Z,1.45
2022-09-03T09:48:52.220Z,1.23
2022-09-03T09:51:23.465Z,1.42
2022-09-03T09:54:04.677Z,1.38
2022-09-03T09:56:33.260Z,1.40
2022-09-03T09:59:08.332Z,1.40
2022-09-03T10:01:48.587Z,1.40
2022-09-03T10:04:32.893Z,1.33
2022-09-03T10:07:19.805Z,1.35
2022-09-03T10:10:00.132Z,1.27
2022-09-03T10:12:35.719Z,1.23
2022-09-03T10:15:24.660Z,1.58
2022-09-03T10:18:03.138Z,1.13
2022-09-03T10:20:44.357Z,1.30
2022-09-03T10:23:22.932Z,1.33
2022-09-03T10:26:07.398Z,1.20
2022-09-03T10:28:39.910Z,1.40
2022-09-03T10:31:43.411Z,0.98
2022-09-03T10:34:18.666Z,1.10
2022-09-03T10:39:50.191Z,1.50
2022-09-03T10:42:42.471Z,1.15
2022-09-03T10:45:33.618Z,0.90
2022-09-03T10:48:27.540Z,1.10
2022-09-03T10:51:02.444Z,1.45
2022-09-03T10:54:01.577Z,0.82
2022-09-03T10:56:38.323Z,1.02
2022-09-03T10:59:29.438Z,1.20
2022-09-03T11:02:24.721Z,1.00
2022-09-03T11:05:02.891Z,1.10
2022-09-03T11:07:41.192Z,1.17
2022-09-03T11:10:19.559Z,1.02
2022-09-03T11:12:57.430Z,1.00
2022-09-03T11:15:32.638Z,1.00
2022-09-03T11:18:15.180Z,1.40
2022-09-03T11:20:46.307Z,1.30
2022-09-03T11:23:15.115Z,1.30
2022-09-03T11:25:58.382Z,1.10
2022-09-03T11:28:45.420Z,1.00
2022-09-03T11:31:34.230Z,1.15
2022-09-03T11:34:09.209Z,1.17
2022-09-03T11:36:42.710Z,1.05
2022-09-03T11:39:36.297Z,3.67
2022-09-03T11:42:11.305Z,1.00
2022-09-03T11:44:51.312Z,1.27
2022-09-03T11:47:26.016Z,0.93
2022-09-03T11:50:06.009Z,1.00
2022-09-03T11:52:40.396Z,1.10
2022-09-03T11:55:09.777Z,1.13
2022-09-03T11:57:43.704Z,1.35
2022-09-03T12:00:18.014Z,1.17
2022-09-03T12:02:49.918Z,1.27
2022-09-03T12:05:35.867Z,1.13
2022-09-03T12:08:37.240Z,1.30
2022-09-03T12:11:27.275Z,1.10
2022-09-03T12:14:13.881Z,1.30
2022-09-03T12:17:13.066Z,1.30
2022-09-03T12:19:47.350Z,1.00
2022-09-03T12:22:16.194Z,0.93
2022-09-03T12:24:46.242Z,1.30
2022-09-03T12:27:25.103Z,1.10
2022-09-03T12:30:00.664Z,1.13
2022-09-03T12:32:33.288Z,1.20
2022-09-03T12:35:14.393Z,1.00
2022-09-03T12:41:23.538Z,1.30
2022-09-03T12:43:39.016Z,1.08
2022-09-03T12:46:17.639Z,1.10
2022-09-03T12:51:55.785Z,1.10
2022-09-03T12:54:50.651Z,1.30
2022-09-03T12:57:28.364Z,1.10
2022-09-03T13:00:05.527Z,1.27
2022-09-03T13:02:51.010Z,1.23
2022-09-03T13:05:33.172Z,1.10
2022-09-03T13:08:08.348Z,1.20
2022-09-03T13:10:42.056Z,1.17
2022-09-03T13:13:27.824Z,1.17
2022-09-03T13:16:34.311Z,1.00
2022-09-03T13:19:11.380Z,1.15
2022-09-03T13:21:53.040Z,1.48
2022-09-03T13:25:04.736Z,1.00
2022-09-03T13:27:46.150Z,0.90
2022-09-03T13:30:23.425Z,1.15
2022-09-03T13:35:43.205Z,0.90
2022-09-03T13:38:27.157Z,1.20
2022-09-03T13:41:04.969Z,1.42
2022-09-03T13:43:43.120Z,1.45
2022-09-03T13:46:19.622Z,1.25
2022-09-03T13:49:53.607Z,0.90
2022-09-03T13:52:33.286Z,1.48
2022-09-03T13:55:11.741Z,1.35
2022-09-03T13:57:50.725Z,1.10
2022-09-03T14:00:31.438Z,1.67
2022-09-03T14:03:16.499Z,1.20
2022-09-03T14:06:08.452Z,1.13
2022-09-03T14:09:05.877Z,1.05
2022-09-03T14:11:51.249Z,1.27
2022-09-03T14:14:37.459Z,1.08
2022-09-03T14:17:16.402Z,1.40
2022-09-03T14:20:02.185Z,0.93
2022-09-03T14:22:45.352Z,1.20
2022-09-03T14:25:18.736Z,1.13
2022-09-03T14:27:47.380Z,0.90
2022-09-03T14:30:41.815Z,1.20
2022-09-03T14:33:20.894Z,1.13
2022-09-03T14:36:04.332Z,1.10
2022-09-03T14:38:58.934Z,1.00
2022-09-03T14:41:53.509Z,1.03
2022-09-03T14:44:57.641Z,0.98
2022-09-03T14:47:44.969Z,1.05
2022-09-03T14:50:35.450Z,1.30
2022-09-03T14:53:27.842Z,1.00
2022-09-03T14:56:33.602Z,1.02
2022-09-03T14:59:24.808Z,0.90
2022-09-03T15:02:16.454Z,0.75
2022-09-03T15:05:11.751Z,0.98
2022-09-03T15:07:49.920Z,1.05
2022-09-03T15:10:37.793Z,1.17
2022-09-03T15:13:17.667Z,1.00
2022-09-03T15:16:23.641Z,1.20
2022-09-03T15:19:21.893Z,0.93
2022-09-03T15:22:26.793Z,1.00
2022-09-03T15:25:12.784Z,1.00
2022-09-03T15:28:39.315Z,0.95
2022-09-03T15:31:28.188Z,1.05
2022-09-03T15:34:30.700Z,1.10
2022-09-03T15:37:13.065Z,1.00
2022-09-03T15:39:48.476Z,1.10
2022-09-03T15:42:29.271Z,1.50
2022-09-03T15:45:18.031Z,1.10
2022-09-03T15:47:58.157Z,1.20
2022-09-03T15:51:00.686Z,1.00
2022-09-03T15:53:40.864Z,1.15
2022-09-03T15:56:22.108Z,1.20
2022-09-03T15:59:01.020Z,1.20
2022-09-03T16:01:41.089Z,1.30
2022-09-03T16:04:53.624Z,1.20
2022-09-03T16:07:28.417Z,1.40
2022-09-03T16:10:24.201Z,1.20
2022-09-03T16:13:06.044Z,1.33
2022-09-03T16:15:43.246Z,2.03
2022-09-03T16:18:24.402Z,1.08
2022-09-03T16:21:00.561Z,1.30
2022-09-03T16:23:34.365Z,1.27
2022-09-03T16:26:09.754Z,0.93
2022-09-03T16:28:48.943Z,1.90
2022-09-03T16:31:41.679Z,1.30
2022-09-03T16:34:23.095Z,1.33
2022-09-03T16:37:05.865Z,1.58
2022-09-03T16:39:55.984Z,1.20
2022-09-03T16:42:33.499Z,1.90
2022-09-03T16:45:19.060Z,1.50
2022-09-03T16:48:09.904Z,1.20
2022-09-03T16:50:58.319Z,1.40
2022-09-03T16:53:41.041Z,1.73
2022-09-03T16:56:33.802Z,1.30
2022-09-03T16:59:19.121Z,1.40
2022-09-03T17:02:18.241Z,1.60
2022-09-03T17:05:13.989Z,1.38
2022-09-03T17:08:09.233Z,1.30
2022-09-03T17:10:47.089Z,1.10
2022-09-03T17:13:54.032Z,1.05
2022-09-03T17:16:41.918Z,1.48
2022-09-03T17:19:23.691Z,1.27
2022-09-03T17:22:07.582Z,1.10
2022-09-03T17:24:47.906Z,1.60
2022-09-03T17:27:48.618Z,1.45
2022-09-03T17:30:30.723Z,1.20
2022-09-03T17:33:35.894Z,1.35
2022-09-03T17:36:15.431Z,1.30
2022-09-03T17:39:30.031Z,1.48
2022-09-03T17:42:06.240Z,1.40
2022-09-03T17:44:56.022Z,1.65
2022-09-03T17:47:54.357Z,1.70
2022-09-03T17:50:27.369Z,1.45
2022-09-03T17:53:01.088Z,1.67
2022-09-03T17:55:37.010Z,1.60
2022-09-03T17:58:15.329Z,1.80
2022-09-03T18:00:55.242Z,1.50
2022-09-03T18:03:28.670Z,1.40
2022-09-03T18:06:04.224Z,1.75
2022-09-03T18:08:42.830Z,1.63
2022-09-03T18:11:15.226Z,1.50
2022-09-03T18:13:55.692Z,1.50
2022-09-03T18:16:29.565Z,1.52
2022-09-03T18:19:07.651Z,1.40
2022-09-03T18:21:57.458Z,1.20
2022-09-03T18:24:51.449Z,1.38
2022-09-03T18:27:42.303Z,1.30
2022-09-03T18:30:33.622Z,1.42
2022-09-03T18:33:21.586Z,1.60
2022-09-03T18:36:07.487Z,1.50
2022-09-03T18:38:56.652Z,1.42
2022-09-03T18:42:18.870Z,1.40
2022-09-03T18:45:22.504Z,1.63
2022-09-03T18:48:25.020Z,1.38
2022-09-03T18:51:20.985Z,1.73
2022-09-03T18:54:16.350Z,1.50
2022-09-03T18:57:09.620Z,1.67
2022-09-03T19:00:25.497Z,1.70
2022-09-03T19:03:35.170Z,1.75
2022-09-03T19:06:34.885Z,1.70
2022-09-03T19:09:30.614Z,1.80
2022-09-03T19:12:31.463Z,1.70
2022-09-03T19:15:26.123Z,1.75
2022-09-03T19:18:35.845Z,1.60
2022-09-03T19:21:35.996Z,2.30
2022-09-03T19:24:24.363Z,2.10
2022-09-03T19:27:51.824Z,2.05
2022-09-03T19:33:32.012Z,2.30
2022-09-03T19:36:30.443Z,2.50
2022-09-03T19:39:43.382Z,2.20
2022-09-03T19:42:40.373Z,2.30
2022-09-03T19:45:39.437Z,2.28
2022-09-03T19:48:38.428Z,2.40
2022-09-03T19:51:33.259Z,1.92
2022-09-03T19:54:22.885Z,2.28
2022-09-03T19:57:10.160Z,2.40
2022-09-03T19:59:59.888Z,2.38
2022-09-03T20:02:46.397Z,5.43
2022-09-03T20:05:39.386Z,5.03
2022-09-03T20:08:26.447Z,2.58
2022-09-03T20:10:59.046Z,3.00
2022-09-03T20:13:28.615Z,2.10
2022-09-03T20:16:08.628Z,2.40
2022-09-03T20:18:49.092Z,2.05
2022-09-03T20:21:26.281Z,2.55
2022-09-03T20:24:03.053Z,2.47
2022-09-03T20:26:45.365Z,3.00
2022-09-03T20:29:36.218Z,2.72
2022-09-03T20:32:12.258Z,2.80
2022-09-03T20:34:51.754Z,2.85
2022-09-03T20:37:30.732Z,3.35
2022-09-03T20:40:27.015Z,2.83
2022-09-03T20:43:20.086Z,2.60
2022-09-03T20:46:07.139Z,3.30
2022-09-03T20:48:47.191Z,3.08
2022-09-03T20:51:22.710Z,3.25
2022-09-03T20:54:08.662Z,2.80
2022-09-03T20:57:01.392Z,3.03
2022-09-03T20:59:48.286Z,3.00
2022-09-03T21:02:31.807Z,3.13
2022-09-03T21:05:10.593Z,3.13
2022-09-03T21:07:52.531Z,3.28
2022-09-03T21:10:33.463Z,3.17
2022-09-03T21:13:13.285Z,3.10
2022-09-03T21:15:56.678Z,3.33
2022-09-03T21:18:38.291Z,5.10
2022-09-03T21:21:20.227Z,3.78
2022-09-03T21:23:58.663Z,3.47
2022-09-03T21:26:32.418Z,3.70
2022-09-03T21:29:08.739Z,4.05
2022-09-03T21:31:43.579Z,3.30
2022-09-03T21:34:21.738Z,3.60
2022-09-03T21:36:51.907Z,3.35
2022-09-03T21:39:27.292Z,3.42
2022-09-03T21:44:49.439Z,3.40
2022-09-03T21:47:21.454Z,3.20
2022-09-03T21:50:17.980Z,3.00
2022-09-03T21:52:55.255Z,2.85
2022-09-03T21:55:33.073Z,3.03
2022-09-03T21:58:20.106Z,2.58
2022-09-03T22:00:52.789Z,2.58
2022-09-03T22:03:21.856Z,2.45
2022-09-03T22:05:58.333Z,2.05
2022-09-03T22:08:34.475Z,1.95
2022-09-03T22:11:13.617Z,2.10
2022-09-03T22:13:49.493Z,2.22
2022-09-03T22:16:28.082Z,1.88
2022-09-03T22:18:56.573Z,2.13
2022-09-03T22:21:32.842Z,3.03
2022-09-03T22:24:19.043Z,2.47
2022-09-03T22:26:56.627Z,2.15
2022-09-03T22:29:41.503Z,2.17
2022-09-03T22:32:27.386Z,2.22
2022-09-03T22:35:44.341Z,2.22
2022-09-03T22:38:38.658Z,2.45
2022-09-03T22:41:23.762Z,2.30
2022-09-03T22:44:03.422Z,2.10
2022-09-03T22:46:42.310Z,2.20
2022-09-03T22:49:28.262Z,2.30
2022-09-03T22:52:10.730Z,2.53
2022-09-03T22:54:56.307Z,2.53
2022-09-03T22:57:28.910Z,2.50
2022-09-03T23:00:03.038Z,2.45
2022-09-03T23:02:33.742Z,2.85
2022-09-03T23:05:08.669Z,2.30
2022-09-03T23:07:58.266Z,2.65
2022-09-03T23:10:33.287Z,2.80
2022-09-03T23:13:10.559Z,2.80
2022-09-03T23:15:42.044Z,3.30
2022-09-03T23:18:17.867Z,2.78
2022-09-03T23:20:57.111Z,3.00
2022-09-03T23:23:31.169Z,2.78
2022-09-03T23:26:13.649Z,2.88
2022-09-03T23:28:48.185Z,3.17
2022-09-03T23:31:22.750Z,3.83
2022-09-03T23:33:56.080Z,2.90
2022-09-03T23:37:05.801Z,2.95
2022-09-03T23:40:09.058Z,3.50
2022-09-03T23:42:57.375Z,3.58
2022-09-03T23:45:40.247Z,3.63
2022-09-03T23:48:24.051Z,3.28
2022-09-03T23:51:06.110Z,3.70
2022-09-03T23:53:49.130Z,3.90
2022-09-03T23:56:55.457Z,3.50
2022-09-03T23:59:39.981Z,3.60
